sensor_id;sensor_type;location;lat;lon;timestamp;P1;durP1;ratioP1;P2;durP2;ratioP2
27999;SDS011;15328;50.860;10.562;2024-02-21T00:03:41;15.33;;;4.50;;
27999;SDS011;15328;50.860;10.562;2024-02-21T00:08:41;14.45;;;4.10;;
27999;SDS011;15328;50.860;10.562;2024-02-21T00:13:42;10.20;;;4.00;;
27999;SDS011;15328;50.860;10.562;2024-02-21T00:18:43;19.90;;;5.15;;
27999;SDS011;15328;50.860;10.562;2024-02-21T00:23:44;10.70;;;3.67;;
27999;SDS011;15328;50.860;10.562;2024-02-21T00:28:47;18.95;;;4.50;;
27999;SDS011;15328;50.860;10.562;2024-02-21T00:33:47;18.87;;;4.80;;
27999;SDS011;15328;50.860;10.562;2024-02-21T00:38:48;13.53;;;4.20;;
27999;SDS011;15328;50.860;10.562;2024-02-21T00:43:48;13.18;;;4.82;;
27999;SDS011;15328;50.860;10.562;2024-02-21T00:48:50;17.55;;;4.60;;
27999;SDS011;15328;50.860;10.562;2024-02-21T00:53:50;16.88;;;5.20;;
27999;SDS011;15328;50.860;10.562;2024-02-21T00:58:50;19.08;;;5.00;;
27999;SDS011;15328;50.860;10.562;2024-02-21T01:03:51;14.85;;;4.95;;
27999;SDS011;15328;50.860;10.562;2024-02-21T01:08:53;14.25;;;4.28;;
27999;SDS011;15328;50.860;10.562;2024-02-21T01:13:54;15.43;;;4.73;;
27999;SDS011;15328;50.860;10.562;2024-02-21T01:18:55;17.98;;;4.95;;
27999;SDS011;15328;50.860;10.562;2024-02-21T01:23:56;13.93;;;4.50;;
27999;SDS011;15328;50.860;10.562;2024-02-21T01:28:56;16.60;;;4.40;;
27999;SDS011;15328;50.860;10.562;2024-02-21T01:33:56;17.85;;;4.65;;
27999;SDS011;15328;50.860;10.562;2024-02-21T01:38:58;13.52;;;4.75;;
27999;SDS011;15328;50.860;10.562;2024-02-21T01:43:58;16.70;;;5.40;;
27999;SDS011;15328;50.860;10.562;2024-02-21T01:48:58;16.88;;;4.88;;
27999;SDS011;15328;50.860;10.562;2024-02-21T01:54:08;15.60;;;5.10;;
27999;SDS011;15328;50.860;10.562;2024-02-21T01:59:11;15.27;;;5.13;;
27999;SDS011;15328;50.860;10.562;2024-02-21T02:04:13;12.52;;;4.70;;
27999;SDS011;15328;50.860;10.562;2024-02-21T02:09:13;9.82;;;4.18;;
27999;SDS011;15328;50.860;10.562;2024-02-21T02:14:14;12.20;;;4.33;;
27999;SDS011;15328;50.860;10.562;2024-02-21T02:19:14;9.43;;;4.23;;
27999;SDS011;15328;50.860;10.562;2024-02-21T02:24:16;15.82;;;5.32;;
27999;SDS011;15328;50.860;10.562;2024-02-21T02:29:16;10.90;;;4.45;;
27999;SDS011;15328;50.860;10.562;2024-02-21T02:34:17;10.02;;;4.28;;
27999;SDS011;15328;50.860;10.562;2024-02-21T02:39:17;10.75;;;4.05;;
27999;SDS011;15328;50.860;10.562;2024-02-21T02:44:18;13.80;;;4.80;;
27999;SDS011;15328;50.860;10.562;2024-02-21T02:49:18;13.93;;;4.87;;
27999;SDS011;15328;50.860;10.562;2024-02-21T02:54:18;14.43;;;5.65;;
27999;SDS011;15328;50.860;10.562;2024-02-21T02:59:19;11.07;;;4.80;;
27999;SDS011;15328;50.860;10.562;2024-02-21T03:04:19;15.95;;;6.05;;
27999;SDS011;15328;50.860;10.562;2024-02-21T03:09:19;12.73;;;5.70;;
27999;SDS011;15328;50.860;10.562;2024-02-21T03:14:20;10.93;;;4.53;;
27999;SDS011;15328;50.860;10.562;2024-02-21T03:19:20;12.25;;;4.68;;
27999;SDS011;15328;50.860;10.562;2024-02-21T03:24:20;13.67;;;4.93;;
27999;SDS011;15328;50.860;10.562;2024-02-21T03:29:21;11.02;;;4.28;;
27999;SDS011;15328;50.860;10.562;2024-02-21T03:34:22;13.48;;;5.13;;
27999;SDS011;15328;50.860;10.562;2024-02-21T03:39:22;15.20;;;5.43;;
27999;SDS011;15328;50.860;10.562;2024-02-21T03:44:22;16.07;;;5.47;;
27999;SDS011;15328;50.860;10.562;2024-02-21T03:49:23;11.37;;;4.47;;
27999;SDS011;15328;50.860;10.562;2024-02-21T03:54:24;12.48;;;4.93;;
27999;SDS011;15328;50.860;10.562;2024-02-21T03:59:24;11.13;;;4.97;;
27999;SDS011;15328;50.860;10.562;2024-02-21T04:04:24;14.40;;;5.90;;
27999;SDS011;15328;50.860;10.562;2024-02-21T04:09:25;13.80;;;5.20;;
27999;SDS011;15328;50.860;10.562;2024-02-21T04:14:25;12.57;;;5.20;;
27999;SDS011;15328;50.860;10.562;2024-02-21T04:19:25;12.35;;;4.72;;
27999;SDS011;15328;50.860;10.562;2024-02-21T04:24:26;11.85;;;4.90;;
27999;SDS011;15328;50.860;10.562;2024-02-21T04:29:27;13.88;;;5.18;;
27999;SDS011;15328;50.860;10.562;2024-02-21T04:34:29;12.43;;;4.53;;
27999;SDS011;15328;50.860;10.562;2024-02-21T04:39:30;8.65;;;4.10;;
27999;SDS011;15328;50.860;10.562;2024-02-21T04:44:30;13.87;;;5.47;;
27999;SDS011;15328;50.860;10.562;2024-02-21T04:49:30;16.43;;;5.10;;
27999;SDS011;15328;50.860;10.562;2024-02-21T04:54:31;11.90;;;4.07;;
27999;SDS011;15328;50.860;10.562;2024-02-21T04:59:31;12.48;;;4.50;;
27999;SDS011;15328;50.860;10.562;2024-02-21T05:04:32;7.50;;;3.78;;
27999;SDS011;15328;50.860;10.562;2024-02-21T05:09:33;8.75;;;4.07;;
27999;SDS011;15328;50.860;10.562;2024-02-21T05:14:34;9.35;;;3.65;;
27999;SDS011;15328;50.860;10.562;2024-02-21T05:19:34;13.52;;;4.20;;
27999;SDS011;15328;50.860;10.562;2024-02-21T05:24:34;10.87;;;4.40;;
27999;SDS011;15328;50.860;10.562;2024-02-21T05:29:36;9.25;;;4.13;;
27999;SDS011;15328;50.860;10.562;2024-02-21T05:34:37;11.23;;;4.18;;
27999;SDS011;15328;50.860;10.562;2024-02-21T05:39:37;10.15;;;4.55;;
27999;SDS011;15328;50.860;10.562;2024-02-21T05:44:37;9.98;;;4.45;;
27999;SDS011;15328;50.860;10.562;2024-02-21T05:49:38;9.32;;;3.88;;
27999;SDS011;15328;50.860;10.562;2024-02-21T05:54:39;10.45;;;4.07;;
27999;SDS011;15328;50.860;10.562;2024-02-21T05:59:40;9.57;;;3.90;;
27999;SDS011;15328;50.860;10.562;2024-02-21T06:04:41;14.50;;;5.40;;
27999;SDS011;15328;50.860;10.562;2024-02-21T06:09:42;12.50;;;4.82;;
27999;SDS011;15328;50.860;10.562;2024-02-21T06:14:43;10.65;;;4.57;;
27999;SDS011;15328;50.860;10.562;2024-02-21T06:19:43;17.17;;;7.57;;
27999;SDS011;15328;50.860;10.562;2024-02-21T06:24:44;9.65;;;5.10;;
27999;SDS011;15328;50.860;10.562;2024-02-21T06:29:45;14.20;;;6.68;;
27999;SDS011;15328;50.860;10.562;2024-02-21T06:34:45;14.87;;;5.67;;
27999;SDS011;15328;50.860;10.562;2024-02-21T06:39:46;12.57;;;5.43;;
27999;SDS011;15328;50.860;10.562;2024-02-21T06:44:46;11.02;;;5.45;;
27999;SDS011;15328;50.860;10.562;2024-02-21T06:49:49;11.30;;;5.40;;
27999;SDS011;15328;50.860;10.562;2024-02-21T06:54:53;9.48;;;4.85;;
27999;SDS011;15328;50.860;10.562;2024-02-21T06:59:53;13.38;;;5.45;;
27999;SDS011;15328;50.860;10.562;2024-02-21T07:04:54;9.88;;;5.00;;
27999;SDS011;15328;50.860;10.562;2024-02-21T07:09:54;9.15;;;4.65;;
27999;SDS011;15328;50.860;10.562;2024-02-21T07:14:54;11.30;;;5.18;;
27999;SDS011;15328;50.860;10.562;2024-02-21T07:19:55;8.97;;;4.27;;
27999;SDS011;15328;50.860;10.562;2024-02-21T07:24:56;10.45;;;4.88;;
27999;SDS011;15328;50.860;10.562;2024-02-21T07:29:57;10.80;;;4.82;;
27999;SDS011;15328;50.860;10.562;2024-02-21T07:34:57;11.63;;;5.57;;
27999;SDS011;15328;50.860;10.562;2024-02-21T07:39:57;12.07;;;5.45;;
27999;SDS011;15328;50.860;10.562;2024-02-21T07:44:58;10.75;;;5.00;;
27999;SDS011;15328;50.860;10.562;2024-02-21T07:49:58;16.80;;;5.72;;
27999;SDS011;15328;50.860;10.562;2024-02-21T07:54:59;12.18;;;6.45;;
27999;SDS011;15328;50.860;10.562;2024-02-21T07:59:59;11.50;;;5.53;;
27999;SDS011;15328;50.860;10.562;2024-02-21T08:04:59;9.52;;;4.50;;
27999;SDS011;15328;50.860;10.562;2024-02-21T08:10:00;12.35;;;5.15;;
27999;SDS011;15328;50.860;10.562;2024-02-21T08:15:00;8.43;;;4.77;;
27999;SDS011;15328;50.860;10.562;2024-02-21T08:20:01;6.82;;;4.25;;
27999;SDS011;15328;50.860;10.562;2024-02-21T08:25:01;5.87;;;3.80;;
27999;SDS011;15328;50.860;10.562;2024-02-21T08:30:02;6.32;;;3.40;;
27999;SDS011;15328;50.860;10.562;2024-02-21T08:35:02;8.88;;;4.88;;
27999;SDS011;15328;50.860;10.562;2024-02-21T08:40:03;7.32;;;3.55;;
27999;SDS011;15328;50.860;10.562;2024-02-21T08:45:08;11.27;;;4.03;;
27999;SDS011;15328;50.860;10.562;2024-02-21T08:50:09;6.50;;;3.50;;
27999;SDS011;15328;50.860;10.562;2024-02-21T08:55:10;8.05;;;4.55;;
27999;SDS011;15328;50.860;10.562;2024-02-21T09:00:10;8.30;;;4.55;;
27999;SDS011;15328;50.860;10.562;2024-02-21T09:05:12;10.27;;;4.88;;
27999;SDS011;15328;50.860;10.562;2024-02-21T09:10:13;8.83;;;4.47;;
27999;SDS011;15328;50.860;10.562;2024-02-21T09:15:13;14.25;;;5.63;;
27999;SDS011;15328;50.860;10.562;2024-02-21T09:20:14;7.80;;;4.65;;
27999;SDS011;15328;50.860;10.562;2024-02-21T09:25:16;8.85;;;4.43;;
27999;SDS011;15328;50.860;10.562;2024-02-21T09:30:17;9.73;;;5.55;;
27999;SDS011;15328;50.860;10.562;2024-02-21T09:35:17;6.50;;;4.53;;
27999;SDS011;15328;50.860;10.562;2024-02-21T09:40:18;7.47;;;4.05;;
27999;SDS011;15328;50.860;10.562;2024-02-21T09:45:24;9.32;;;4.45;;
27999;SDS011;15328;50.860;10.562;2024-02-21T09:50:24;9.65;;;5.30;;
27999;SDS011;15328;50.860;10.562;2024-02-21T09:55:27;9.68;;;5.32;;
27999;SDS011;15328;50.860;10.562;2024-02-21T10:00:29;10.23;;;5.93;;
27999;SDS011;15328;50.860;10.562;2024-02-21T10:05:30;13.82;;;5.22;;
27999;SDS011;15328;50.860;10.562;2024-02-21T10:10:40;13.70;;;7.22;;
27999;SDS011;15328;50.860;10.562;2024-02-21T10:15:42;9.32;;;3.63;;
27999;SDS011;15328;50.860;10.562;2024-02-21T10:20:42;10.90;;;3.83;;
27999;SDS011;15328;50.860;10.562;2024-02-21T10:25:44;8.93;;;3.60;;
27999;SDS011;15328;50.860;10.562;2024-02-21T10:30:49;7.20;;;3.30;;
27999;SDS011;15328;50.860;10.562;2024-02-21T10:35:52;8.45;;;3.75;;
27999;SDS011;15328;50.860;10.562;2024-02-21T10:40:53;9.60;;;3.95;;
27999;SDS011;15328;50.860;10.562;2024-02-21T10:45:57;9.70;;;3.42;;
27999;SDS011;15328;50.860;10.562;2024-02-21T10:51:05;6.47;;;3.10;;
27999;SDS011;15328;50.860;10.562;2024-02-21T11:01:29;7.93;;;3.08;;
27999;SDS011;15328;50.860;10.562;2024-02-21T11:06:31;7.95;;;2.80;;
27999;SDS011;15328;50.860;10.562;2024-02-21T11:11:34;8.02;;;3.00;;
27999;SDS011;15328;50.860;10.562;2024-02-21T11:16:40;7.38;;;3.13;;
27999;SDS011;15328;50.860;10.562;2024-02-21T11:21:41;6.70;;;3.15;;
27999;SDS011;15328;50.860;10.562;2024-02-21T11:26:42;6.47;;;2.88;;
27999;SDS011;15328;50.860;10.562;2024-02-21T11:31:43;7.85;;;3.13;;
27999;SDS011;15328;50.860;10.562;2024-02-21T11:36:46;9.38;;;3.58;;
27999;SDS011;15328;50.860;10.562;2024-02-21T11:42:02;12.05;;;3.22;;
27999;SDS011;15328;50.860;10.562;2024-02-21T11:47:07;8.00;;;3.15;;
27999;SDS011;15328;50.860;10.562;2024-02-21T11:52:08;7.03;;;2.92;;
27999;SDS011;15328;50.860;10.562;2024-02-21T11:57:08;8.65;;;3.17;;
27999;SDS011;15328;50.860;10.562;2024-02-21T12:02:09;8.07;;;3.67;;
27999;SDS011;15328;50.860;10.562;2024-02-21T12:07:10;9.10;;;3.15;;
27999;SDS011;15328;50.860;10.562;2024-02-21T12:12:10;8.27;;;3.03;;
27999;SDS011;15328;50.860;10.562;2024-02-21T12:17:11;8.03;;;3.07;;
27999;SDS011;15328;50.860;10.562;2024-02-21T12:22:18;7.63;;;3.20;;
27999;SDS011;15328;50.860;10.562;2024-02-21T12:27:19;6.47;;;3.03;;
27999;SDS011;15328;50.860;10.562;2024-02-21T12:32:19;6.93;;;2.97;;
27999;SDS011;15328;50.860;10.562;2024-02-21T12:37:21;7.32;;;2.90;;
27999;SDS011;15328;50.860;10.562;2024-02-21T12:42:24;9.25;;;2.88;;
27999;SDS011;15328;50.860;10.562;2024-02-21T12:47:25;8.80;;;3.03;;
27999;SDS011;15328;50.860;10.562;2024-02-21T12:52:26;6.13;;;2.67;;
27999;SDS011;15328;50.860;10.562;2024-02-21T12:57:27;8.50;;;2.70;;
27999;SDS011;15328;50.860;10.562;2024-02-21T13:02:27;8.83;;;2.80;;
27999;SDS011;15328;50.860;10.562;2024-02-21T13:07:28;7.20;;;2.58;;
27999;SDS011;15328;50.860;10.562;2024-02-21T13:12:29;4.82;;;2.17;;
27999;SDS011;15328;50.860;10.562;2024-02-21T13:17:30;7.53;;;2.30;;
27999;SDS011;15328;50.860;10.562;2024-02-21T13:22:40;7.50;;;2.47;;
27999;SDS011;15328;50.860;10.562;2024-02-21T13:27:44;4.95;;;1.83;;
27999;SDS011;15328;50.860;10.562;2024-02-21T13:32:44;5.60;;;2.25;;
27999;SDS011;15328;50.860;10.562;2024-02-21T13:37:48;8.00;;;2.65;;
27999;SDS011;15328;50.860;10.562;2024-02-21T13:42:50;5.70;;;2.00;;
27999;SDS011;15328;50.860;10.562;2024-02-21T13:47:51;7.03;;;2.50;;
27999;SDS011;15328;50.860;10.562;2024-02-21T13:52:54;6.72;;;1.92;;
27999;SDS011;15328;50.860;10.562;2024-02-21T13:57:55;7.35;;;2.40;;
27999;SDS011;15328;50.860;10.562;2024-02-21T14:02:55;8.57;;;2.20;;
27999;SDS011;15328;50.860;10.562;2024-02-21T14:07:58;7.18;;;2.28;;
27999;SDS011;15328;50.860;10.562;2024-02-21T14:12:58;7.30;;;2.00;;
27999;SDS011;15328;50.860;10.562;2024-02-21T14:17:58;6.97;;;2.28;;
27999;SDS011;15328;50.860;10.562;2024-02-21T14:22:59;7.20;;;2.27;;
27999;SDS011;15328;50.860;10.562;2024-02-21T14:27:59;10.50;;;2.77;;
27999;SDS011;15328;50.860;10.562;2024-02-21T14:33:02;10.95;;;3.10;;
27999;SDS011;15328;50.860;10.562;2024-02-21T14:38:03;8.52;;;2.72;;
27999;SDS011;15328;50.860;10.562;2024-02-21T14:43:03;8.88;;;2.90;;
27999;SDS011;15328;50.860;10.562;2024-02-21T14:48:04;7.23;;;2.13;;
27999;SDS011;15328;50.860;10.562;2024-02-21T14:53:04;7.20;;;2.53;;
27999;SDS011;15328;50.860;10.562;2024-02-21T14:58:05;8.25;;;2.58;;
27999;SDS011;15328;50.860;10.562;2024-02-21T15:03:07;9.65;;;2.50;;
27999;SDS011;15328;50.860;10.562;2024-02-21T15:08:07;7.23;;;2.20;;
27999;SDS011;15328;50.860;10.562;2024-02-21T15:13:10;9.98;;;2.45;;
27999;SDS011;15328;50.860;10.562;2024-02-21T15:18:10;11.07;;;2.55;;
27999;SDS011;15328;50.860;10.562;2024-02-21T15:23:11;8.02;;;2.53;;
27999;SDS011;15328;50.860;10.562;2024-02-21T15:28:11;8.87;;;2.17;;
27999;SDS011;15328;50.860;10.562;2024-02-21T15:33:12;6.45;;;2.50;;
27999;SDS011;15328;50.860;10.562;2024-02-21T15:38:13;8.30;;;2.13;;
27999;SDS011;15328;50.860;10.562;2024-02-21T15:43:13;8.65;;;2.85;;
27999;SDS011;15328;50.860;10.562;2024-02-21T15:48:14;7.35;;;2.25;;
27999;SDS011;15328;50.860;10.562;2024-02-21T15:53:14;8.98;;;2.20;;
27999;SDS011;15328;50.860;10.562;2024-02-21T15:58:15;9.05;;;2.65;;
27999;SDS011;15328;50.860;10.562;2024-02-21T16:03:19;7.93;;;2.50;;
27999;SDS011;15328;50.860;10.562;2024-02-21T16:08:19;8.80;;;2.58;;
27999;SDS011;15328;50.860;10.562;2024-02-21T16:13:20;8.38;;;2.90;;
27999;SDS011;15328;50.860;10.562;2024-02-21T16:18:21;7.28;;;2.22;;
27999;SDS011;15328;50.860;10.562;2024-02-21T16:23:23;11.35;;;3.03;;
27999;SDS011;15328;50.860;10.562;2024-02-21T16:28:24;10.37;;;2.93;;
27999;SDS011;15328;50.860;10.562;2024-02-21T16:33:25;10.38;;;3.05;;
27999;SDS011;15328;50.860;10.562;2024-02-21T16:38:25;9.13;;;3.40;;
27999;SDS011;15328;50.860;10.562;2024-02-21T16:43:26;8.90;;;2.90;;
27999;SDS011;15328;50.860;10.562;2024-02-21T16:48:27;8.00;;;2.67;;
27999;SDS011;15328;50.860;10.562;2024-02-21T16:53:27;11.75;;;3.00;;
27999;SDS011;15328;50.860;10.562;2024-02-21T16:58:27;10.35;;;3.60;;
27999;SDS011;15328;50.860;10.562;2024-02-21T17:03:30;10.23;;;3.40;;
27999;SDS011;15328;50.860;10.562;2024-02-21T17:08:31;11.55;;;3.33;;
27999;SDS011;15328;50.860;10.562;2024-02-21T17:13:31;13.68;;;3.50;;
27999;SDS011;15328;50.860;10.562;2024-02-21T17:18:32;9.48;;;3.00;;
27999;SDS011;15328;50.860;10.562;2024-02-21T17:23:33;12.25;;;2.95;;
27999;SDS011;15328;50.860;10.562;2024-02-21T17:28:33;10.02;;;3.20;;
27999;SDS011;15328;50.860;10.562;2024-02-21T17:33:34;9.63;;;2.90;;
27999;SDS011;15328;50.860;10.562;2024-02-21T17:38:34;12.67;;;3.37;;
27999;SDS011;15328;50.860;10.562;2024-02-21T17:43:34;8.32;;;3.83;;
27999;SDS011;15328;50.860;10.562;2024-02-21T17:48:38;11.07;;;3.03;;
27999;SDS011;15328;50.860;10.562;2024-02-21T17:53:38;16.30;;;3.50;;
27999;SDS011;15328;50.860;10.562;2024-02-21T17:58:39;10.15;;;2.78;;
27999;SDS011;15328;50.860;10.562;2024-02-21T18:03:39;13.30;;;3.20;;
27999;SDS011;15328;50.860;10.562;2024-02-21T18:08:39;11.23;;;3.28;;
27999;SDS011;15328;50.860;10.562;2024-02-21T18:13:40;11.82;;;2.75;;
27999;SDS011;15328;50.860;10.562;2024-02-21T18:18:41;7.18;;;2.03;;
27999;SDS011;15328;50.860;10.562;2024-02-21T18:23:44;8.23;;;2.50;;
27999;SDS011;15328;50.860;10.562;2024-02-21T18:28:45;10.55;;;2.70;;
27999;SDS011;15328;50.860;10.562;2024-02-21T18:33:46;12.82;;;2.53;;
27999;SDS011;15328;50.860;10.562;2024-02-21T18:38:46;5.40;;;2.40;;
27999;SDS011;15328;50.860;10.562;2024-02-21T18:43:46;13.03;;;2.53;;
27999;SDS011;15328;50.860;10.562;2024-02-21T18:48:47;9.80;;;2.50;;
27999;SDS011;15328;50.860;10.562;2024-02-21T18:53:47;9.97;;;3.17;;
27999;SDS011;15328;50.860;10.562;2024-02-21T18:58:47;6.60;;;2.35;;
27999;SDS011;15328;50.860;10.562;2024-02-21T19:03:48;9.63;;;2.30;;
27999;SDS011;15328;50.860;10.562;2024-02-21T19:08:48;7.45;;;3.03;;
27999;SDS011;15328;50.860;10.562;2024-02-21T19:13:50;10.05;;;2.90;;
27999;SDS011;15328;50.860;10.562;2024-02-21T19:18:51;7.55;;;3.00;;
27999;SDS011;15328;50.860;10.562;2024-02-21T19:23:51;10.15;;;2.25;;
27999;SDS011;15328;50.860;10.562;2024-02-21T19:28:52;11.85;;;2.65;;
27999;SDS011;15328;50.860;10.562;2024-02-21T19:33:53;5.50;;;2.05;;
27999;SDS011;15328;50.860;10.562;2024-02-21T19:38:56;4.85;;;1.80;;
27999;SDS011;15328;50.860;10.562;2024-02-21T19:43:57;10.40;;;2.72;;
27999;SDS011;15328;50.860;10.562;2024-02-21T19:48:58;5.15;;;1.70;;
27999;SDS011;15328;50.860;10.562;2024-02-21T19:53:58;9.27;;;2.38;;
27999;SDS011;15328;50.860;10.562;2024-02-21T19:58:58;7.93;;;1.92;;
27999;SDS011;15328;50.860;10.562;2024-02-21T20:04:01;6.50;;;2.33;;
27999;SDS011;15328;50.860;10.562;2024-02-21T20:09:04;5.82;;;1.85;;
27999;SDS011;15328;50.860;10.562;2024-02-21T20:14:07;8.27;;;1.70;;
27999;SDS011;15328;50.860;10.562;2024-02-21T20:19:08;6.07;;;1.73;;
27999;SDS011;15328;50.860;10.562;2024-02-21T20:24:12;4.75;;;1.70;;
27999;SDS011;15328;50.860;10.562;2024-02-21T20:29:13;4.38;;;1.50;;
27999;SDS011;15328;50.860;10.562;2024-02-21T20:34:15;3.28;;;1.45;;
27999;SDS011;15328;50.860;10.562;2024-02-21T20:39:16;4.72;;;1.40;;
27999;SDS011;15328;50.860;10.562;2024-02-21T20:44:18;4.28;;;1.50;;
27999;SDS011;15328;50.860;10.562;2024-02-21T20:49:19;5.97;;;1.60;;
27999;SDS011;15328;50.860;10.562;2024-02-21T20:54:19;4.95;;;1.90;;
27999;SDS011;15328;50.860;10.562;2024-02-21T20:59:19;6.17;;;1.87;;
27999;SDS011;15328;50.860;10.562;2024-02-21T21:04:20;3.80;;;1.25;;
27999;SDS011;15328;50.860;10.562;2024-02-21T21:09:20;3.20;;;1.37;;
27999;SDS011;15328;50.860;10.562;2024-02-21T21:14:21;3.87;;;1.77;;
27999;SDS011;15328;50.860;10.562;2024-02-21T21:19:21;4.35;;;1.40;;
27999;SDS011;15328;50.860;10.562;2024-02-21T21:24:21;3.60;;;1.33;;
27999;SDS011;15328;50.860;10.562;2024-02-21T21:29:22;4.88;;;1.40;;
27999;SDS011;15328;50.860;10.562;2024-02-21T21:34:22;2.63;;;1.13;;
27999;SDS011;15328;50.860;10.562;2024-02-21T21:39:22;8.52;;;1.75;;
27999;SDS011;15328;50.860;10.562;2024-02-21T21:44:23;4.65;;;1.67;;
27999;SDS011;15328;50.860;10.562;2024-02-21T21:49:23;5.97;;;1.42;;
27999;SDS011;15328;50.860;10.562;2024-02-21T21:54:24;5.18;;;1.27;;
27999;SDS011;15328;50.860;10.562;2024-02-21T21:59:24;3.90;;;1.60;;
27999;SDS011;15328;50.860;10.562;2024-02-21T22:04:24;4.30;;;1.67;;
27999;SDS011;15328;50.860;10.562;2024-02-21T22:09:25;4.90;;;1.80;;
27999;SDS011;15328;50.860;10.562;2024-02-21T22:14:28;5.95;;;1.83;;
27999;SDS011;15328;50.860;10.562;2024-02-21T22:19:29;4.00;;;1.30;;
27999;SDS011;15328;50.860;10.562;2024-02-21T22:24:29;5.20;;;1.70;;
27999;SDS011;15328;50.860;10.562;2024-02-21T22:29:30;4.75;;;2.00;;
27999;SDS011;15328;50.860;10.562;2024-02-21T22:34:32;4.25;;;1.38;;
27999;SDS011;15328;50.860;10.562;2024-02-21T22:39:33;4.20;;;1.47;;
27999;SDS011;15328;50.860;10.562;2024-02-21T22:44:33;3.73;;;1.17;;
27999;SDS011;15328;50.860;10.562;2024-02-21T22:49:35;4.80;;;1.45;;
27999;SDS011;15328;50.860;10.562;2024-02-21T22:54:35;3.67;;;1.40;;
27999;SDS011;15328;50.860;10.562;2024-02-21T22:59:36;5.43;;;1.70;;
27999;SDS011;15328;50.860;10.562;2024-02-21T23:04:36;6.38;;;1.60;;
27999;SDS011;15328;50.860;10.562;2024-02-21T23:09:36;4.25;;;1.50;;
27999;SDS011;15328;50.860;10.562;2024-02-21T23:14:37;2.55;;;1.20;;
27999;SDS011;15328;50.860;10.562;2024-02-21T23:19:37;5.07;;;1.80;;
27999;SDS011;15328;50.860;10.562;2024-02-21T23:24:37;4.38;;;1.67;;
27999;SDS011;15328;50.860;10.562;2024-02-21T23:29:38;3.15;;;1.50;;
27999;SDS011;15328;50.860;10.562;2024-02-21T23:34:38;2.30;;;1.52;;
27999;SDS011;15328;50.860;10.562;2024-02-21T23:39:38;2.72;;;1.33;;
27999;SDS011;15328;50.860;10.562;2024-02-21T23:44:39;4.97;;;1.58;;
27999;SDS011;15328;50.860;10.562;2024-02-21T23:49:41;2.70;;;1.42;;
27999;SDS011;15328;50.860;10.562;2024-02-21T23:54:41;2.33;;;1.40;;
27999;SDS011;15328;50.860;10.562;2024-02-21T23:59:42;3.50;;;1.70;;
